createdAt,value
2022-11-21T13:06:58.773Z,8.43
2022-11-21T13:09:28.269Z,10.43
2022-11-21T13:12:00.602Z,11.00
2022-11-21T13:14:45.139Z,9.70
2022-11-21T13:17:14.485Z,9.32
2022-11-21T13:19:56.242Z,9.27
2022-11-21T13:22:38.090Z,13.25
2022-11-21T13:25:30.308Z,12.55
2022-11-21T13:28:19.406Z,11.20
2022-11-21T13:30:49.661Z,10.48
2022-11-21T13:33:34.415Z,10.57
2022-11-21T13:36:10.804Z,10.43
2022-11-21T13:38:55.226Z,11.00
2022-11-21T13:41:52.632Z,12.73
2022-11-21T13:44:31.264Z,10.65
2022-11-21T13:47:03.169Z,11.07
2022-11-21T13:49:38.948Z,10.85
2022-11-21T13:52:42.401Z,11.75
2022-11-21T13:55:30.341Z,10.88
2022-11-21T13:58:27.805Z,10.52
2022-11-21T14:01:35.327Z,10.93
2022-11-21T14:04:32.224Z,11.68
2022-11-21T14:07:26.000Z,12.38
2022-11-21T14:09:55.871Z,11.48
2022-11-21T14:12:33.264Z,12.55
2022-11-21T14:15:01.760Z,12.88
2022-11-21T14:17:44.566Z,11.88
2022-11-21T14:20:48.714Z,12.02
2022-11-21T14:23:18.565Z,11.50
2022-11-21T14:25:53.913Z,12.55
2022-11-21T14:28:31.937Z,11.55
2022-11-21T14:31:01.800Z,13.00
2022-11-21T14:33:32.415Z,13.38
2022-11-21T14:36:19.073Z,12.50
2022-11-21T14:39:02.139Z,12.65
2022-11-21T14:41:37.003Z,11.52
2022-11-21T14:44:05.992Z,13.00
2022-11-21T14:46:32.635Z,12.80
2022-11-21T14:49:17.222Z,12.85
2022-11-21T14:51:48.196Z,12.32
2022-11-21T14:54:20.874Z,11.25
2022-11-21T14:56:54.441Z,12.75
2022-11-21T14:59:27.428Z,11.88
2022-11-21T15:02:11.267Z,12.00
2022-11-21T15:04:37.933Z,12.40
2022-11-21T15:07:05.041Z,13.10
2022-11-21T15:12:35.465Z,13.27
2022-11-21T15:15:21.247Z,11.90
2022-11-21T15:18:23.855Z,14.38
2022-11-21T15:20:47.953Z,15.57
2022-11-21T15:23:39.999Z,14.73
2022-11-21T15:26:26.301Z,14.75
2022-11-21T15:28:57.357Z,12.23
2022-11-21T15:31:23.947Z,12.52
2022-11-21T15:37:17.452Z,13.07
2022-11-21T15:39:45.578Z,14.82
2022-11-21T15:42:33.650Z,15.85
2022-11-21T15:45:21.090Z,14.10
2022-11-21T15:47:48.549Z,14.43
2022-11-21T15:50:16.168Z,13.45
2022-11-21T15:52:48.279Z,15.02
2022-11-21T15:55:22.085Z,15.05
2022-11-21T15:57:49.885Z,13.63
2022-11-21T16:00:17.334Z,14.93
2022-11-21T16:02:43.759Z,15.85
2022-11-21T16:05:14.191Z,18.42
2022-11-21T16:07:41.630Z,15.80
2022-11-21T16:10:17.259Z,13.65
2022-11-21T16:12:47.097Z,13.23
2022-11-21T16:15:14.142Z,13.48
2022-11-21T16:17:41.549Z,15.00
2022-11-21T16:20:08.459Z,14.65
2022-11-21T16:22:34.867Z,13.85
2022-11-21T16:25:01.239Z,15.10
2022-11-21T16:27:27.810Z,15.35
2022-11-21T16:29:54.206Z,15.55
2022-11-21T16:32:20.641Z,15.05
2022-11-21T16:34:47.215Z,15.77
2022-11-21T16:37:14.331Z,15.38
2022-11-21T16:39:41.793Z,17.30
2022-11-21T16:42:10.276Z,15.27
2022-11-21T16:44:36.666Z,14.57
2022-11-21T16:47:08.021Z,15.88
2022-11-21T16:49:35.001Z,15.20
2022-11-21T16:52:01.436Z,15.45
2022-11-21T16:54:27.905Z,16.80
2022-11-21T16:56:54.354Z,15.07
2022-11-21T16:59:20.752Z,15.38
2022-11-21T17:01:47.386Z,16.65
2022-11-21T17:04:17.222Z,14.65
2022-11-21T17:06:44.813Z,15.23
2022-11-21T17:09:11.488Z,15.70
2022-11-21T17:11:38.012Z,15.73
2022-11-21T17:14:06.170Z,15.73
2022-11-21T17:16:34.490Z,16.17
2022-11-21T17:19:02.629Z,16.60
2022-11-21T17:21:29.887Z,16.40
2022-11-21T17:23:56.720Z,17.13
2022-11-21T17:26:25.305Z,15.80
2022-11-21T17:28:57.476Z,15.60
2022-11-21T17:31:24.440Z,14.65
2022-11-21T17:33:54.696Z,15.52
2022-11-21T17:36:23.448Z,15.73
2022-11-21T17:38:50.224Z,16.17
2022-11-21T17:41:19.038Z,15.60
2022-11-21T17:43:47.208Z,14.18
2022-11-21T17:46:18.309Z,14.05
2022-11-21T17:48:51.252Z,16.55
2022-11-21T17:51:23.153Z,15.40
2022-11-21T17:53:50.925Z,16.48
2022-11-21T17:56:22.778Z,16.38
2022-11-21T17:58:50.598Z,18.75
2022-11-21T18:01:20.757Z,17.02
2022-11-21T18:03:53.947Z,18.23
2022-11-21T18:06:20.612Z,18.10
2022-11-21T18:08:48.258Z,16.85
2022-11-21T18:11:18.328Z,17.42
2022-11-21T18:13:45.574Z,17.90
2022-11-21T18:16:14.843Z,18.83
2022-11-21T18:18:41.831Z,17.45
2022-11-21T18:21:18.898Z,18.88
2022-11-21T18:23:45.429Z,20.20
2022-11-21T18:26:14.464Z,18.50
2022-11-21T18:28:41.580Z,19.00
2022-11-21T18:31:08.046Z,20.60
2022-11-21T18:33:35.568Z,19.15
2022-11-21T18:36:03.260Z,18.98
2022-11-21T18:38:48.899Z,20.73
2022-11-21T18:41:17.957Z,20.77
2022-11-21T18:43:49.396Z,20.65
2022-11-21T18:49:01.344Z,18.80
2022-11-21T18:51:30.749Z,21.42
2022-11-21T18:53:59.203Z,21.88
2022-11-21T18:56:25.854Z,21.75
2022-11-21T18:58:58.141Z,21.48
2022-11-21T19:01:27.221Z,18.73
2022-11-21T19:03:54.471Z,17.90
2022-11-21T19:06:22.689Z,19.45
2022-11-21T19:08:50.967Z,19.33
2022-11-21T19:11:17.703Z,19.60
2022-11-21T19:13:44.634Z,19.52
2022-11-21T19:16:14.184Z,21.20
2022-11-21T19:18:44.208Z,19.83
2022-11-21T19:21:13.993Z,20.10
2022-11-21T19:23:41.908Z,18.90
2022-11-21T19:26:11.182Z,19.67
2022-11-21T19:28:37.748Z,20.90
2022-11-21T19:31:07.484Z,21.85
2022-11-21T19:33:34.340Z,20.20
2022-11-21T19:36:07.896Z,20.77
2022-11-21T19:38:34.559Z,21.80
2022-11-21T19:41:18.508Z,19.73
2022-11-21T19:43:59.241Z,22.08
2022-11-21T19:46:33.242Z,22.10
2022-11-21T19:49:00.395Z,22.50
2022-11-21T19:51:36.463Z,21.00
2022-11-21T19:54:04.603Z,23.40
2022-11-21T19:56:31.279Z,22.25
2022-11-21T19:58:58.474Z,21.25
2022-11-21T20:01:28.423Z,20.90
2022-11-21T20:03:59.881Z,22.42
2022-11-21T20:06:29.020Z,21.75
2022-11-21T20:09:00.890Z,21.70
2022-11-21T20:11:29.857Z,21.38
2022-11-21T20:13:57.020Z,22.05
2022-11-21T20:16:31.914Z,21.25
2022-11-21T20:19:01.036Z,22.60
2022-11-21T20:21:28.912Z,22.83
2022-11-21T20:23:55.937Z,20.40
2022-11-21T20:26:23.493Z,21.30
2022-11-21T20:28:50.678Z,21.60
2022-11-21T20:31:19.488Z,21.92
2022-11-21T20:33:48.046Z,21.27
2022-11-21T20:36:20.115Z,20.17
2022-11-21T20:39:15.188Z,21.48
2022-11-21T20:41:41.651Z,20.25
2022-11-21T20:47:00.742Z,19.65
2022-11-21T20:49:27.314Z,21.10
2022-11-21T20:54:40.609Z,19.83
2022-11-21T20:57:14.280Z,19.48
2022-11-21T20:59:41.471Z,20.27
2022-11-21T21:02:11.826Z,20.38
2022-11-21T21:04:38.440Z,20.73
2022-11-21T21:07:04.962Z,18.13
2022-11-21T21:09:31.727Z,19.25
2022-11-21T21:11:58.344Z,19.15
2022-11-21T21:14:24.820Z,19.38
2022-11-21T21:16:51.300Z,17.80
2022-11-21T21:19:18.274Z,20.08
2022-11-21T21:21:45.079Z,19.92
2022-11-21T21:24:12.734Z,20.17
2022-11-21T21:26:43.625Z,22.85
2022-11-21T21:29:16.155Z,19.85
2022-11-21T21:31:49.924Z,19.20
2022-11-21T21:34:17.021Z,19.10
2022-11-21T21:36:43.624Z,18.13
2022-11-21T21:39:10.076Z,20.45
2022-11-21T21:41:39.770Z,18.70
2022-11-21T21:44:06.500Z,19.30
2022-11-21T21:46:32.989Z,17.90
2022-11-21T21:48:59.546Z,19.17
2022-11-21T21:51:30.705Z,18.10
2022-11-21T21:53:58.529Z,18.98
2022-11-21T21:56:27.037Z,19.50
2022-11-21T21:58:53.661Z,19.08
2022-11-21T22:01:23.045Z,18.30
2022-11-21T22:03:53.823Z,19.25
2022-11-21T22:06:20.440Z,19.38
2022-11-21T22:08:48.489Z,18.23
2022-11-21T22:11:20.143Z,18.83
2022-11-21T22:13:51.742Z,18.48
2022-11-21T22:18:44.821Z,18.02
2022-11-21T22:21:21.764Z,18.05
2022-11-21T22:24:22.895Z,18.05
2022-11-21T22:26:34.720Z,18.85
2022-11-21T22:29:01.167Z,17.77
2022-11-21T22:31:30.362Z,18.98
2022-11-21T22:33:57.398Z,18.52
2022-11-21T22:36:23.918Z,18.73
2022-11-21T22:38:53.835Z,17.73
2022-11-21T22:41:23.228Z,16.98
2022-11-21T22:43:52.859Z,17.08
2022-11-21T22:46:20.454Z,15.60
2022-11-21T22:48:47.722Z,16.70
2022-11-21T22:51:18.526Z,15.80
2022-11-21T22:53:49.233Z,15.73
2022-11-21T22:56:18.447Z,16.25
2022-11-21T22:58:45.777Z,15.95
2022-11-21T23:01:23.710Z,16.13
2022-11-21T23:03:50.612Z,17.42
2022-11-21T23:06:19.966Z,15.77
2022-11-21T23:08:46.957Z,16.27
2022-11-21T23:11:14.708Z,15.35
2022-11-21T23:13:43.388Z,14.98
2022-11-21T23:16:10.916Z,14.68
2022-11-21T23:18:37.472Z,15.45
2022-11-21T23:21:04.893Z,15.75
2022-11-21T23:23:31.633Z,15.88
2022-11-21T23:25:58.558Z,15.65
2022-11-21T23:28:24.869Z,15.93
2022-11-21T23:30:51.720Z,15.85
2022-11-21T23:33:18.434Z,16.33
2022-11-21T23:35:46.012Z,15.32
2022-11-21T23:38:14.022Z,15.30
2022-11-21T23:40:40.375Z,15.60
2022-11-21T23:43:06.937Z,15.55
2022-11-21T23:45:33.321Z,16.17
2022-11-21T23:47:59.622Z,14.98
2022-11-21T23:50:25.987Z,14.77
2022-11-21T23:52:52.307Z,14.60
2022-11-21T23:55:18.701Z,17.35
2022-11-21T23:57:48.755Z,16.20
